createdAt,value
2022-09-06T00:00:31.232Z,17.18
2022-09-06T00:03:01.020Z,17.20
2022-09-06T00:05:30.797Z,17.18
2022-09-06T00:08:00.474Z,17.06
2022-09-06T00:10:31.392Z,17.07
2022-09-06T00:13:02.092Z,16.97
2022-09-06T00:15:31.597Z,16.84
2022-09-06T00:18:01.210Z,16.74
2022-09-06T00:20:30.425Z,16.77
2022-09-06T00:22:59.914Z,16.68
2022-09-06T00:25:30.891Z,16.64
2022-09-06T00:28:00.909Z,16.66
2022-09-06T00:30:30.969Z,16.63
2022-09-06T00:32:59.715Z,16.65
2022-09-06T00:35:29.053Z,16.54
2022-09-06T00:37:58.807Z,16.57
2022-09-06T00:40:29.366Z,16.60
2022-09-06T00:42:59.434Z,16.54
2022-09-06T00:45:29.282Z,16.50
2022-09-06T00:48:00.426Z,16.47
2022-09-06T00:50:30.143Z,16.53
2022-09-06T00:52:58.825Z,16.56
2022-09-06T00:55:27.595Z,16.57
2022-09-06T00:57:56.836Z,16.49
2022-09-06T01:00:26.818Z,16.49
2022-09-06T01:02:55.523Z,16.42
2022-09-06T01:05:36.066Z,16.32
2022-09-06T01:08:15.528Z,16.18
2022-09-06T01:10:59.864Z,16.09
2022-09-06T01:13:36.036Z,15.92
2022-09-06T01:16:13.831Z,15.85
2022-09-06T01:19:01.240Z,15.89
2022-09-06T01:21:46.467Z,15.92
2022-09-06T01:24:43.695Z,15.86
2022-09-06T01:27:55.764Z,15.74
2022-09-06T01:30:26.171Z,15.58
2022-09-06T01:33:02.537Z,15.49
2022-09-06T01:35:36.285Z,15.47
2022-09-06T01:38:06.226Z,15.28
2022-09-06T01:40:36.377Z,15.30
2022-09-06T01:43:10.633Z,15.33
2022-09-06T01:45:52.138Z,15.31
2022-09-06T01:48:34.819Z,15.37
2022-09-06T01:51:15.020Z,15.39
2022-09-06T01:53:55.816Z,15.35
2022-09-06T01:56:37.665Z,15.30
2022-09-06T01:59:28.037Z,15.21
2022-09-06T02:02:04.649Z,15.17
2022-09-06T02:04:41.982Z,15.12
2022-09-06T02:07:17.663Z,14.98
2022-09-06T02:09:52.222Z,14.93
2022-09-06T02:12:23.752Z,14.93
2022-09-06T02:14:58.485Z,14.89
2022-09-06T02:17:33.097Z,14.77
2022-09-06T02:20:05.797Z,14.71
2022-09-06T02:22:40.700Z,14.63
2022-09-06T02:25:12.521Z,14.59
2022-09-06T02:27:41.251Z,14.56
2022-09-06T02:30:10.913Z,14.55
2022-09-06T02:32:47.332Z,14.58
2022-09-06T02:35:17.590Z,14.54
2022-09-06T02:37:46.651Z,14.58
2022-09-06T02:40:15.552Z,14.56
2022-09-06T02:42:44.325Z,14.42
2022-09-06T02:45:12.971Z,14.36
2022-09-06T02:47:42.894Z,14.33
2022-09-06T02:50:13.152Z,14.28
2022-09-06T02:52:41.865Z,14.22
2022-09-06T02:55:11.249Z,14.18
2022-09-06T02:57:39.707Z,14.16
2022-09-06T03:00:09.214Z,14.14
2022-09-06T03:02:37.780Z,14.12
2022-09-06T03:05:08.673Z,14.16
2022-09-06T03:07:37.332Z,14.17
2022-09-06T03:10:06.543Z,14.11
2022-09-06T03:12:34.975Z,14.01
2022-09-06T03:15:03.519Z,13.93
2022-09-06T03:17:31.903Z,13.87
2022-09-06T03:20:00.340Z,13.99
2022-09-06T03:22:30.157Z,13.88
2022-09-06T03:24:58.636Z,13.93
2022-09-06T03:27:27.167Z,13.90
2022-09-06T03:29:55.657Z,13.97
2022-09-06T03:32:24.114Z,13.93
2022-09-06T03:34:52.980Z,13.84
2022-09-06T03:37:21.470Z,13.74
2022-09-06T03:39:51.313Z,13.67
2022-09-06T03:42:19.817Z,13.62
2022-09-06T03:44:48.415Z,13.69
2022-09-06T03:47:19.573Z,13.72
2022-09-06T03:49:48.452Z,13.85
2022-09-06T03:52:17.070Z,13.87
2022-09-06T03:54:45.735Z,13.86
2022-09-06T03:57:15.612Z,13.95
2022-09-06T03:59:44.082Z,13.90
2022-09-06T04:02:12.621Z,13.87
2022-09-06T04:04:41.147Z,13.87
2022-09-06T04:07:09.723Z,13.77
2022-09-06T04:09:38.506Z,13.81
2022-09-06T04:12:07.251Z,13.87
2022-09-06T04:14:37.150Z,13.94
2022-09-06T04:17:05.821Z,13.96
2022-09-06T04:19:34.332Z,14.02
2022-09-06T04:22:03.021Z,13.90
2022-09-06T04:24:31.577Z,13.81
2022-09-06T04:27:00.136Z,13.87
2022-09-06T04:29:28.636Z,13.91
2022-09-06T04:31:58.523Z,13.93
2022-09-06T04:34:27.014Z,13.98
2022-09-06T04:36:55.557Z,13.90
2022-09-06T04:39:24.116Z,13.79
2022-09-06T04:41:52.677Z,13.72
2022-09-06T04:44:21.279Z,13.61
2022-09-06T04:46:49.879Z,13.57
2022-09-06T04:49:19.870Z,13.56
2022-09-06T04:51:48.419Z,13.55
2022-09-06T04:54:16.956Z,13.57
2022-09-06T04:56:45.538Z,13.53
2022-09-06T04:59:14.087Z,13.49
2022-09-06T05:01:42.594Z,13.55
2022-09-06T05:04:11.200Z,13.47
2022-09-06T05:06:47.901Z,13.55
2022-09-06T05:09:16.811Z,13.59
2022-09-06T05:11:45.468Z,13.54
2022-09-06T05:14:14.009Z,13.53
2022-09-06T05:16:42.743Z,13.62
2022-09-06T05:19:11.552Z,13.68
2022-09-06T05:21:40.271Z,13.72
2022-09-06T05:24:10.253Z,13.70
2022-09-06T05:26:38.806Z,13.74
2022-09-06T05:29:07.499Z,13.84
2022-09-06T05:31:36.798Z,13.89
2022-09-06T05:34:05.574Z,13.90
2022-09-06T05:36:59.019Z,13.92
2022-09-06T05:39:29.234Z,13.99
2022-09-06T05:42:00.668Z,14.06
2022-09-06T05:44:29.248Z,14.08
2022-09-06T05:46:58.037Z,14.16
2022-09-06T05:49:26.577Z,14.21
2022-09-06T05:51:55.044Z,14.32
2022-09-06T05:54:23.609Z,14.41
2022-09-06T05:56:53.459Z,14.51
2022-09-06T05:59:21.943Z,14.63
2022-09-06T06:01:54.420Z,14.71
2022-09-06T06:04:23.637Z,14.80
2022-09-06T06:06:52.359Z,14.94
2022-09-06T06:09:20.922Z,15.08
2022-09-06T06:11:49.810Z,15.21
2022-09-06T06:14:19.799Z,15.32
2022-09-06T06:16:48.350Z,15.72
2022-09-06T06:19:17.001Z,16.85
2022-09-06T06:21:45.532Z,17.73
2022-09-06T06:24:14.168Z,18.78
2022-09-06T06:26:42.714Z,19.52
2022-09-06T06:29:11.500Z,20.28
2022-09-06T06:31:41.490Z,20.87
2022-09-06T06:34:10.271Z,21.38
2022-09-06T06:36:39.088Z,21.99
2022-09-06T06:39:09.486Z,22.71
2022-09-06T06:41:52.302Z,23.15
2022-09-06T06:44:33.982Z,23.54
2022-09-06T06:47:03.999Z,23.91
2022-09-06T06:49:32.569Z,24.07
2022-09-06T06:52:01.417Z,24.42
2022-09-06T06:54:29.910Z,24.63
2022-09-06T06:56:58.350Z,25.09
2022-09-06T06:59:26.857Z,25.03
2022-09-06T07:01:55.400Z,25.65
2022-09-06T07:04:25.771Z,25.84
2022-09-06T07:12:34.641Z,26.16
2022-09-06T07:15:03.254Z,26.71
2022-09-06T07:17:31.728Z,27.36
2022-09-06T07:20:16.921Z,27.26
2022-09-06T07:22:45.501Z,27.45
2022-09-06T07:25:20.587Z,27.31
2022-09-06T07:27:50.421Z,27.87
2022-09-06T07:30:20.738Z,27.25
2022-09-06T07:32:49.462Z,27.67
2022-09-06T07:35:20.419Z,27.91
2022-09-06T07:37:55.933Z,28.25
2022-09-06T07:40:24.939Z,28.28
2022-09-06T07:42:53.660Z,28.29
2022-09-06T07:45:22.163Z,28.81
2022-09-06T07:47:59.656Z,28.73
2022-09-06T07:50:48.838Z,28.67
2022-09-06T07:53:27.738Z,28.87
2022-09-06T07:56:00.473Z,28.85
2022-09-06T07:58:30.062Z,29.22
2022-09-06T08:01:20.887Z,29.70
2022-09-06T08:03:49.422Z,30.04
2022-09-06T08:06:20.095Z,30.15
2022-09-06T08:09:03.949Z,30.21
2022-09-06T08:11:33.876Z,30.94
2022-09-06T08:14:04.877Z,30.94
2022-09-06T08:16:35.408Z,31.34
2022-09-06T08:19:07.668Z,32.35
2022-09-06T08:21:37.620Z,32.04
2022-09-06T08:24:08.001Z,31.19
2022-09-06T08:26:39.425Z,31.59
2022-09-06T08:29:09.204Z,31.77
2022-09-06T08:31:39.528Z,31.95
2022-09-06T08:34:08.329Z,31.85
2022-09-06T08:36:38.129Z,32.81
2022-09-06T08:39:09.050Z,32.66
2022-09-06T08:41:47.564Z,33.41
2022-09-06T08:47:10.156Z,32.60
2022-09-06T08:49:41.747Z,32.97
2022-09-06T08:52:25.253Z,33.58
2022-09-06T08:55:02.979Z,33.28
2022-09-06T08:57:41.452Z,32.85
2022-09-06T09:00:13.013Z,32.86
2022-09-06T09:02:47.344Z,33.43
2022-09-06T09:05:23.881Z,33.57
2022-09-06T09:08:12.466Z,33.94
2022-09-06T09:10:43.953Z,34.11
2022-09-06T09:13:23.535Z,34.02
2022-09-06T09:15:52.388Z,33.42
2022-09-06T09:18:30.406Z,34.67
2022-09-06T09:21:00.048Z,35.16
2022-09-06T09:23:31.889Z,35.15
2022-09-06T09:26:04.455Z,34.84
2022-09-06T09:28:33.271Z,35.25
2022-09-06T09:31:01.807Z,35.19
2022-09-06T09:33:35.692Z,35.99
2022-09-06T09:36:08.516Z,36.24
2022-09-06T09:38:43.420Z,35.65
2022-09-06T09:41:25.256Z,36.07
2022-09-06T09:44:02.273Z,36.35
2022-09-06T09:46:34.322Z,37.14
2022-09-06T09:49:09.049Z,36.52
2022-09-06T09:51:39.886Z,36.49
2022-09-06T09:54:11.649Z,36.79
2022-09-06T09:56:45.488Z,36.38
2022-09-06T09:59:19.765Z,37.19
2022-09-06T10:01:48.729Z,37.73
2022-09-06T10:07:14.237Z,37.67
2022-09-06T10:09:47.116Z,37.64
2022-09-06T10:12:19.017Z,37.28
2022-09-06T10:14:49.276Z,36.75
2022-09-06T10:17:23.412Z,37.23
2022-09-06T10:19:51.811Z,37.83
2022-09-06T10:22:25.286Z,37.52
2022-09-06T10:25:22.278Z,38.30
2022-09-06T10:28:11.686Z,39.15
2022-09-06T10:30:49.005Z,38.67
2022-09-06T10:33:28.702Z,38.05
2022-09-06T10:36:01.304Z,38.33
2022-09-06T10:38:40.750Z,38.84
2022-09-06T10:41:26.531Z,37.89
2022-09-06T10:44:06.274Z,38.25
2022-09-06T10:46:36.265Z,37.82
2022-09-06T10:49:04.782Z,37.11
2022-09-06T10:51:38.553Z,38.07
2022-09-06T10:54:08.629Z,38.25
2022-09-06T10:56:43.369Z,37.63
2022-09-06T10:59:37.716Z,37.64
2022-09-06T11:02:20.161Z,38.22
2022-09-06T11:10:34.244Z,39.17
2022-09-06T11:13:09.863Z,39.65
2022-09-06T11:15:52.041Z,40.02
2022-09-06T11:18:26.837Z,39.73
2022-09-06T11:21:19.352Z,39.99
2022-09-06T11:23:51.229Z,39.60
2022-09-06T11:26:41.415Z,39.43
2022-09-06T11:29:19.491Z,39.39
2022-09-06T11:34:54.301Z,40.76
2022-09-06T11:37:27.037Z,39.89
2022-09-06T11:40:29.431Z,40.39
2022-09-06T11:43:17.213Z,40.64
2022-09-06T11:45:50.557Z,41.01
2022-09-06T11:48:37.331Z,40.79
2022-09-06T11:51:10.898Z,40.32
2022-09-06T11:54:07.192Z,40.59
2022-09-06T11:56:41.602Z,40.90
2022-09-06T11:59:22.313Z,41.06
2022-09-06T12:02:03.759Z,41.52
2022-09-06T12:05:27.094Z,41.63
2022-09-06T12:08:34.096Z,41.06
2022-09-06T12:11:06.114Z,40.31
2022-09-06T12:13:54.277Z,39.41
2022-09-06T12:16:24.079Z,40.24
2022-09-06T12:19:00.303Z,40.42
2022-09-06T12:21:45.988Z,39.73
2022-09-06T12:24:50.558Z,40.26
2022-09-06T12:27:20.674Z,40.20
2022-09-06T12:29:56.156Z,40.10
2022-09-06T12:32:31.633Z,40.22
2022-09-06T12:37:57.010Z,40.41
2022-09-06T12:40:27.613Z,40.59
2022-09-06T12:42:56.778Z,40.72
2022-09-06T12:45:27.511Z,40.32
2022-09-06T12:48:25.860Z,39.92
2022-09-06T12:51:03.809Z,40.15
2022-09-06T12:53:34.194Z,40.64
2022-09-06T12:56:07.096Z,40.24
2022-09-06T12:58:36.271Z,39.46
2022-09-06T13:01:12.414Z,39.71
2022-09-06T13:03:45.574Z,39.06
2022-09-06T13:06:24.533Z,40.08
2022-09-06T13:08:58.376Z,39.81
2022-09-06T13:11:31.426Z,39.55
2022-09-06T13:14:00.421Z,38.65
2022-09-06T13:16:32.382Z,38.85
2022-09-06T13:19:13.664Z,38.10
2022-09-06T13:21:45.904Z,38.03
2022-09-06T13:24:23.918Z,38.67
2022-09-06T13:26:53.319Z,39.29
2022-09-06T13:29:30.339Z,39.28
2022-09-06T13:32:00.973Z,39.15
2022-09-06T13:34:31.576Z,38.76
2022-09-06T13:37:04.433Z,39.11
2022-09-06T13:39:35.282Z,38.80
2022-09-06T13:42:07.313Z,39.05
2022-09-06T13:44:37.291Z,39.40
2022-09-06T13:47:06.807Z,38.75
2022-09-06T13:49:35.237Z,38.57
2022-09-06T13:52:05.734Z,38.36
2022-09-06T13:54:34.654Z,37.52
2022-09-06T13:57:03.370Z,37.58
2022-09-06T13:59:32.099Z,37.46
2022-09-06T14:02:03.376Z,36.75
2022-09-06T14:04:32.558Z,34.59
2022-09-06T14:07:01.728Z,34.24
2022-09-06T14:09:32.603Z,33.89
2022-09-06T14:12:02.149Z,33.63
2022-09-06T14:14:30.918Z,33.30
2022-09-06T14:16:59.897Z,33.06
2022-09-06T14:19:28.794Z,32.81
2022-09-06T14:21:57.404Z,32.68
2022-09-06T14:24:26.167Z,32.23
2022-09-06T14:26:56.086Z,32.05
2022-09-06T14:29:24.890Z,31.73
2022-09-06T14:31:56.853Z,31.67
2022-09-06T14:34:26.232Z,31.27
2022-09-06T14:36:55.355Z,30.86
2022-09-06T14:39:24.039Z,30.70
2022-09-06T14:41:53.140Z,30.50
2022-09-06T14:44:23.272Z,30.21
2022-09-06T14:46:53.423Z,30.30
2022-09-06T14:49:22.233Z,30.26
2022-09-06T14:51:53.051Z,30.04
2022-09-06T14:54:25.041Z,29.78
2022-09-06T14:56:56.330Z,29.78
2022-09-06T14:59:26.669Z,29.73
2022-09-06T15:01:55.563Z,29.76
2022-09-06T15:04:24.363Z,29.58
2022-09-06T15:06:53.851Z,29.64
2022-09-06T15:09:22.556Z,29.33
2022-09-06T15:11:52.689Z,29.45
2022-09-06T15:14:23.099Z,29.47
2022-09-06T15:16:56.614Z,29.56
2022-09-06T15:19:25.715Z,29.56
2022-09-06T15:21:55.305Z,29.52
2022-09-06T15:24:25.424Z,29.49
2022-09-06T15:26:54.248Z,29.40
2022-09-06T15:29:23.013Z,29.26
2022-09-06T15:31:53.303Z,29.16
2022-09-06T15:34:23.848Z,29.08
2022-09-06T15:36:53.689Z,29.05
2022-09-06T15:39:22.287Z,29.19
2022-09-06T15:41:51.787Z,29.25
2022-09-06T15:44:21.494Z,29.35
2022-09-06T15:46:51.936Z,29.37
2022-09-06T15:49:27.844Z,29.52
2022-09-06T15:51:58.124Z,29.62
2022-09-06T15:54:40.509Z,29.68
2022-09-06T15:57:09.724Z,29.40
2022-09-06T15:59:38.343Z,29.44
2022-09-06T16:02:06.929Z,29.35
2022-09-06T16:04:36.900Z,29.06
2022-09-06T16:07:05.586Z,28.91
2022-09-06T16:09:34.698Z,28.92
2022-09-06T16:12:03.518Z,28.80
2022-09-06T16:14:32.299Z,28.64
2022-09-06T16:17:01.148Z,28.57
2022-09-06T16:19:29.731Z,28.54
2022-09-06T16:22:00.926Z,28.71
2022-09-06T16:24:29.589Z,28.84
2022-09-06T16:26:58.218Z,28.95
2022-09-06T16:29:26.999Z,29.00
2022-09-06T16:31:59.625Z,28.95
2022-09-06T16:34:28.560Z,28.90
2022-09-06T16:36:57.282Z,28.87
2022-09-06T16:39:28.016Z,28.63
2022-09-06T16:41:56.652Z,28.45
2022-09-06T16:44:25.292Z,28.24
2022-09-06T16:46:54.045Z,28.12
2022-09-06T16:49:23.070Z,28.01
2022-09-06T16:51:52.210Z,27.88
2022-09-06T16:54:21.055Z,27.76
2022-09-06T16:56:51.418Z,27.70
2022-09-06T16:59:21.606Z,27.63
2022-09-06T17:01:51.591Z,27.59
2022-09-06T17:04:20.281Z,27.50
2022-09-06T17:06:49.105Z,27.35
2022-09-06T17:09:19.985Z,27.27
2022-09-06T17:11:50.573Z,27.22
2022-09-06T17:14:19.586Z,27.16
2022-09-06T17:17:05.442Z,27.08
2022-09-06T17:19:37.520Z,26.96
2022-09-06T17:22:06.626Z,26.90
2022-09-06T17:24:35.654Z,26.83
2022-09-06T17:27:06.223Z,26.78
2022-09-06T17:29:34.888Z,26.67
2022-09-06T17:32:09.856Z,26.56
2022-09-06T17:34:38.677Z,26.54
2022-09-06T17:37:08.186Z,26.53
2022-09-06T17:39:36.952Z,26.54
2022-09-06T17:42:07.591Z,26.46
2022-09-06T17:44:36.139Z,26.44
2022-09-06T17:47:13.744Z,26.36
2022-09-06T17:49:48.904Z,26.30
2022-09-06T17:52:23.482Z,26.31
2022-09-06T17:54:57.201Z,26.36
2022-09-06T17:57:27.139Z,26.16
2022-09-06T17:59:55.736Z,25.49
2022-09-06T18:02:24.303Z,24.94
2022-09-06T18:04:52.937Z,24.66
2022-09-06T18:07:21.523Z,24.53
2022-09-06T18:09:50.214Z,24.51
2022-09-06T18:12:24.934Z,24.32
2022-09-06T18:15:04.326Z,24.21
2022-09-06T18:17:35.787Z,24.22
2022-09-06T18:20:05.132Z,24.15
2022-09-06T18:22:33.846Z,24.11
2022-09-06T18:25:02.387Z,24.04
2022-09-06T18:27:30.899Z,23.86
2022-09-06T18:30:00.817Z,23.75
2022-09-06T18:32:29.318Z,23.62
2022-09-06T18:34:57.864Z,23.62
2022-09-06T18:37:26.411Z,23.51
2022-09-06T18:39:54.949Z,23.31
2022-09-06T18:42:23.578Z,23.09
2022-09-06T18:44:52.072Z,22.93
2022-09-06T18:47:22.391Z,22.75
2022-09-06T18:49:51.012Z,22.64
2022-09-06T18:52:20.643Z,22.60
2022-09-06T18:54:52.342Z,22.54
2022-09-06T18:57:21.136Z,22.45
2022-09-06T18:59:49.701Z,22.30
2022-09-06T19:02:18.562Z,22.15
2022-09-06T19:04:48.630Z,22.09
2022-09-06T19:07:18.264Z,21.97
2022-09-06T19:09:46.773Z,21.87
2022-09-06T19:12:15.598Z,21.76
2022-09-06T19:14:44.243Z,21.58
2022-09-06T19:17:12.800Z,21.52
2022-09-06T19:19:41.492Z,21.42
2022-09-06T19:22:11.590Z,21.36
2022-09-06T19:24:42.011Z,21.37
2022-09-06T19:27:11.751Z,21.33
2022-09-06T19:29:40.512Z,21.24
2022-09-06T19:32:09.347Z,21.16
2022-09-06T19:34:38.658Z,21.14
2022-09-06T19:37:07.284Z,21.15
2022-09-06T19:39:37.566Z,21.08
2022-09-06T19:42:07.039Z,21.09
2022-09-06T19:44:35.977Z,21.09
2022-09-06T19:47:04.588Z,21.07
2022-09-06T19:49:33.216Z,21.04
2022-09-06T19:52:04.188Z,21.06
2022-09-06T19:54:32.929Z,21.09
2022-09-06T19:57:03.289Z,21.16
2022-09-06T19:59:32.025Z,21.17
2022-09-06T20:02:00.593Z,21.07
2022-09-06T20:04:29.146Z,21.00
2022-09-06T20:06:57.853Z,20.93
2022-09-06T20:09:29.529Z,20.87
2022-09-06T20:11:58.108Z,20.90
2022-09-06T20:14:28.677Z,20.91
2022-09-06T20:17:11.108Z,20.76
2022-09-06T20:19:47.188Z,20.74
2022-09-06T20:22:15.781Z,20.89
2022-09-06T20:24:44.720Z,20.99
2022-09-06T20:27:13.874Z,21.14
2022-09-06T20:29:44.141Z,21.27
2022-09-06T20:32:12.746Z,21.36
2022-09-06T20:34:41.632Z,21.40
2022-09-06T20:37:10.855Z,21.40
2022-09-06T20:39:39.836Z,21.47
2022-09-06T20:42:08.632Z,21.54
2022-09-06T20:44:37.184Z,21.56
2022-09-06T20:47:07.391Z,21.57
2022-09-06T20:49:36.194Z,21.44
2022-09-06T20:52:04.766Z,21.39
2022-09-06T20:54:33.865Z,21.36
2022-09-06T20:57:02.475Z,21.34
2022-09-06T20:59:31.124Z,21.33
2022-09-06T21:01:59.750Z,21.29
2022-09-06T21:04:29.881Z,21.30
2022-09-06T21:06:58.457Z,21.40
2022-09-06T21:09:27.287Z,21.47
2022-09-06T21:11:57.612Z,21.43
2022-09-06T21:14:26.382Z,21.48
2022-09-06T21:16:54.897Z,21.57
2022-09-06T21:19:23.485Z,21.64
2022-09-06T21:21:53.437Z,21.77
2022-09-06T21:24:22.076Z,21.80
2022-09-06T21:26:50.789Z,21.77
2022-09-06T21:29:19.366Z,21.73
2022-09-06T21:31:48.023Z,21.63
2022-09-06T21:34:17.415Z,21.56
2022-09-06T21:36:46.365Z,21.11
2022-09-06T21:39:16.561Z,20.64
2022-09-06T21:41:45.732Z,20.23
2022-09-06T21:44:14.495Z,19.08
2022-09-06T21:46:43.240Z,18.46
2022-09-06T21:49:13.812Z,18.20
2022-09-06T21:51:43.011Z,18.01
2022-09-06T21:54:11.777Z,17.98
2022-09-06T21:56:41.985Z,17.90
2022-09-06T21:59:11.450Z,17.84
2022-09-06T22:01:43.944Z,17.79
2022-09-06T22:04:14.205Z,17.71
2022-09-06T22:06:42.818Z,17.65
2022-09-06T22:09:13.044Z,17.59
2022-09-06T22:11:45.031Z,17.71
2022-09-06T22:14:15.681Z,17.86
2022-09-06T22:16:44.947Z,17.93
2022-09-06T22:19:13.668Z,17.92
2022-09-06T22:21:42.159Z,18.15
2022-09-06T22:24:12.697Z,18.20
2022-09-06T22:26:43.333Z,17.83
2022-09-06T22:29:13.432Z,17.51
2022-09-06T22:31:42.173Z,17.32
2022-09-06T22:34:11.574Z,17.04
2022-09-06T22:36:40.427Z,16.92
2022-09-06T22:39:09.504Z,16.90
2022-09-06T22:41:38.278Z,16.82
2022-09-06T22:44:08.454Z,16.70
2022-09-06T22:46:38.326Z,16.69
2022-09-06T22:49:07.105Z,16.65
2022-09-06T22:51:35.714Z,16.59
2022-09-06T22:54:04.588Z,16.52
2022-09-06T22:56:33.386Z,16.46
2022-09-06T22:59:02.341Z,16.50
2022-09-06T23:01:38.550Z,16.47
2022-09-06T23:04:07.421Z,16.40
2022-09-06T23:06:36.287Z,16.39
2022-09-06T23:09:05.412Z,16.26
2022-09-06T23:11:33.999Z,16.15
2022-09-06T23:14:02.962Z,16.10
2022-09-06T23:16:32.933Z,16.12
2022-09-06T23:19:01.472Z,16.15
2022-09-06T23:21:30.014Z,16.22
2022-09-06T23:23:58.604Z,16.29
2022-09-06T23:26:30.664Z,16.28
2022-09-06T23:28:59.999Z,16.28
2022-09-06T23:31:32.316Z,16.33
2022-09-06T23:34:03.256Z,16.27
2022-09-06T23:36:32.745Z,16.36
2022-09-06T23:39:02.481Z,16.33
2022-09-06T23:41:31.798Z,16.34
2022-09-06T23:44:00.705Z,16.30
2022-09-06T23:46:30.284Z,16.20
2022-09-06T23:48:59.091Z,16.20
2022-09-06T23:51:28.986Z,16.06
2022-09-06T23:53:58.275Z,15.97
2022-09-06T23:56:26.906Z,16.05
2022-09-06T23:58:55.446Z,16.09
